Corumba, Brazil
Current Conditions -  °F | °C
As of 8:00 PM on Wednesday 22 Oct 2014 (Local Time) from SBCR Reporting Station
Few Clouds Few Clouds  
Wind Chill: 86°   Ceiling: Unl
Heat Index: 90°   Visibility: 6mi
Dew Point: 70°   Wind: 7mph
Humidity: 58%   Direction: 180°S
Pressure: 29.8"   Gusts: NA
Location:  19.01°S, 57.64°W
Report Text: SBCR 222300Z 18006KT 9999 FEW025 30/21 Q1009
Loading
Personal Weather Stations






























Interactive Weather Map
Tropical Storm Tracking
New forecast layout! Learn more

10-Day Weather Forecast

Advertisements
Track Severe Weather on mobile